Time,TemperatureF,DewpointF,PressureIn,WindDirection,WindDirectionDegrees,WindSpeedMPH,WindSpeedGustMPH,Humidity,HourlyPrecipIn,Conditions,Clouds,dailyrainin,SoftwareType,DateUTC
2013-02-06 00:01:00,27.0,11.0,-100.00,WSW,244,17.0,20.0,50,0.00,,,-99.99,,2013-02-06 07:01:00,
2013-02-06 00:11:00,27.0,11.0,-100.00,WSW,243,17.0,19.0,51,0.00,,,-99.99,,2013-02-06 07:11:00,
2013-02-06 00:21:00,27.0,10.0,-100.00,WSW,246,16.0,17.0,49,0.00,,,-99.99,,2013-02-06 07:21:00,
2013-02-06 00:32:00,27.0,10.0,-100.00,WSW,248,16.0,19.0,48,0.00,,,-99.99,,2013-02-06 07:32:00,
2013-02-06 00:41:00,27.0,10.0,-100.00,WSW,250,16.0,19.0,48,0.00,,,-99.99,,2013-02-06 07:41:00,
2013-02-06 00:51:00,27.0,10.0,-100.00,WSW,253,17.0,21.0,47,0.00,,,-99.99,,2013-02-06 07:51:00,
2013-02-06 01:01:00,27.0,10.0,-100.00,WSW,250,16.0,18.0,46,0.00,,,-99.99,,2013-02-06 08:01:00,
2013-02-06 01:11:00,27.0,10.0,-100.00,WSW,248,15.0,17.0,47,0.00,,,-99.99,,2013-02-06 08:11:00,
2013-02-06 01:21:00,27.0,9.0,-100.00,WSW,243,13.0,16.0,47,0.00,,,-99.99,,2013-02-06 08:21:00,
2013-02-06 01:31:00,27.0,10.0,-100.00,WSW,240,13.0,15.0,48,0.00,,,-99.99,,2013-02-06 08:31:00,
2013-02-06 01:41:00,26.0,9.0,-100.00,WSW,244,12.0,15.0,47,0.00,,,-99.99,,2013-02-06 08:41:00,
2013-02-06 01:53:00,27.0,8.0,-100.00,WSW,246,13.0,16.0,45,0.00,,,-99.99,,2013-02-06 08:53:00,
2013-02-06 02:01:00,27.0,8.0,-100.00,WSW,257,15.0,17.0,42,0.00,,,-99.99,,2013-02-06 09:01:00,
2013-02-06 02:11:00,28.0,7.0,-100.00,West,261,16.0,19.0,42,0.00,,,-99.99,,2013-02-06 09:11:00,
2013-02-06 02:21:00,27.0,7.0,-100.00,West,261,16.0,19.0,42,0.00,,,-99.99,,2013-02-06 09:21:00,
2013-02-06 02:31:00,27.0,7.0,-100.00,WSW,254,14.0,17.0,41,0.00,,,-99.99,,2013-02-06 09:31:00,
2013-02-06 02:41:00,27.0,7.0,-100.00,WSW,251,14.0,17.0,41,0.00,,,-99.99,,2013-02-06 09:41:00,
2013-02-06 02:51:00,26.0,7.0,-100.00,WSW,240,14.0,17.0,43,0.00,,,-99.99,,2013-02-06 09:51:00,
2013-02-06 03:01:00,26.0,7.0,-100.00,WSW,237,16.0,17.0,44,0.00,,,-99.99,,2013-02-06 10:01:00,
2013-02-06 03:11:00,25.0,7.0,-100.00,WSW,237,12.0,14.0,46,0.00,,,-99.99,,2013-02-06 10:11:00,
2013-02-06 03:21:00,24.0,7.0,-100.00,SW,233,14.0,16.0,47,0.00,,,-99.99,,2013-02-06 10:21:00,
2013-02-06 03:31:00,23.0,7.0,-100.00,SW,233,12.0,14.0,51,0.00,,,-99.99,,2013-02-06 10:31:00,
2013-02-06 03:41:00,21.0,7.0,-100.00,WSW,237,14.0,16.0,53,0.00,,,-99.99,,2013-02-06 10:41:00,
2013-02-06 03:51:00,21.0,7.0,-100.00,WSW,237,14.0,16.0,55,0.00,,,-99.99,,2013-02-06 10:51:00,
2013-02-06 04:01:00,21.0,7.0,-100.00,SW,227,13.0,14.0,56,0.00,,,-99.99,,2013-02-06 11:01:00,
2013-02-06 04:11:00,21.0,7.0,-100.00,SW,232,13.0,15.0,54,0.00,,,-99.99,,2013-02-06 11:11:00,
2013-02-06 04:21:00,22.0,7.0,-100.00,SW,234,14.0,15.0,52,0.00,,,-99.99,,2013-02-06 11:21:00,
2013-02-06 04:31:00,23.0,7.0,-100.00,WSW,241,13.0,16.0,50,0.00,,,-99.99,,2013-02-06 11:31:00,
2013-02-06 04:41:00,23.0,7.0,-100.00,WSW,237,14.0,16.0,49,0.00,,,-99.99,,2013-02-06 11:41:00,
2013-02-06 04:52:00,22.0,7.0,-100.00,WSW,240,14.0,16.0,52,0.00,,,-99.99,,2013-02-06 11:52:00,
2013-02-06 05:01:00,24.0,7.0,-100.00,WSW,239,12.0,14.0,48,0.00,,,-99.99,,2013-02-06 12:01:00,
2013-02-06 05:12:00,24.0,7.0,-100.00,WSW,244,12.0,14.0,46,0.00,,,-99.99,,2013-02-06 12:12:00,
2013-02-06 05:21:00,27.0,7.0,-100.00,WSW,256,14.0,16.0,43,0.00,,,-99.99,,2013-02-06 12:21:00,
2013-02-06 05:32:00,27.0,8.0,-100.00,West,260,14.0,16.0,44,0.00,,,-99.99,,2013-02-06 12:32:00,
2013-02-06 05:41:00,27.0,8.0,-100.00,WSW,258,16.0,19.0,44,0.00,,,-99.99,,2013-02-06 12:41:00,
2013-02-06 05:52:00,27.0,8.0,-100.00,WSW,258,15.0,19.0,45,0.00,,,-99.99,,2013-02-06 12:52:00,
2013-02-06 06:01:00,26.0,8.0,-100.00,WSW,258,14.0,17.0,46,0.00,,,-99.99,,2013-02-06 13:01:00,
2013-02-06 06:11:00,26.0,8.0,-100.00,West,263,16.0,20.0,45,0.00,,,-99.99,,2013-02-06 13:11:00,
2013-02-06 06:21:00,27.0,8.0,-100.00,WSW,258,14.0,19.0,44,0.00,,,-99.99,,2013-02-06 13:21:00,
2013-02-06 06:31:00,26.0,9.0,-100.00,WSW,250,16.0,19.0,46,0.00,,,-99.99,,2013-02-06 13:31:00,
2013-02-06 06:41:00,26.0,9.0,-100.00,WSW,254,14.0,17.0,49,0.00,,,-99.99,,2013-02-06 13:41:00,
2013-02-06 06:51:00,26.0,10.0,-100.00,WSW,251,14.0,16.0,50,0.00,,,-99.99,,2013-02-06 13:51:00,
2013-02-06 07:01:00,25.0,10.0,-100.00,WSW,244,12.0,13.0,52,0.00,,,-99.99,,2013-02-06 14:01:00,
2013-02-06 07:11:00,25.0,10.0,-100.00,WSW,241,12.0,14.0,53,0.00,,,-99.99,,2013-02-06 14:11:00,
2013-02-06 07:21:00,24.0,9.0,-100.00,WSW,246,13.0,17.0,50,0.00,,,-99.99,,2013-02-06 14:21:00,
2013-02-06 07:31:00,25.0,8.0,-100.00,WSW,246,12.0,14.0,49,0.00,,,-99.99,,2013-02-06 14:31:00,
2013-02-06 07:41:00,24.0,7.0,-100.00,WSW,247,11.0,13.0,48,0.00,,,-99.99,,2013-02-06 14:41:00,
2013-02-06 07:52:00,23.0,7.0,-100.00,WSW,248,11.0,12.0,50,0.00,,,-99.99,,2013-02-06 14:52:00,
2013-02-06 08:01:00,23.0,7.0,-100.00,West,260,12.0,15.0,49,0.00,,,-99.99,,2013-02-06 15:01:00,
2013-02-06 08:11:00,24.0,7.0,-100.00,WSW,257,12.0,14.0,48,0.00,,,-99.99,,2013-02-06 15:11:00,
2013-02-06 08:21:00,24.0,7.0,-100.00,West,268,12.0,15.0,49,0.00,,,-99.99,,2013-02-06 15:21:00,
2013-02-06 08:31:00,23.0,8.0,-100.00,West,261,11.0,12.0,50,0.00,,,-99.99,,2013-02-06 15:31:00,
2013-02-06 08:41:00,23.0,8.0,-100.00,West,261,9.0,11.0,51,0.00,,,-99.99,,2013-02-06 15:41:00,
2013-02-06 08:51:00,23.0,8.0,-100.00,WSW,253,8.0,10.0,51,0.00,,,-99.99,,2013-02-06 15:51:00,
2013-02-06 09:01:00,25.0,8.0,-100.00,WSW,253,9.0,12.0,49,0.00,,,-99.99,,2013-02-06 16:01:00,
2013-02-06 09:11:00,26.0,9.0,-100.00,WSW,246,13.0,17.0,48,0.00,,,-99.99,,2013-02-06 16:11:00,
2013-02-06 09:21:00,26.0,10.0,-100.00,WSW,247,15.0,21.0,49,0.00,,,-99.99,,2013-02-06 16:21:00,
2013-02-06 09:32:00,26.0,10.0,-100.00,WSW,243,16.0,19.0,51,0.00,,,-99.99,,2013-02-06 16:32:00,
2013-02-06 09:41:00,25.0,11.0,-100.00,WSW,248,16.0,19.0,53,0.00,,,-99.99,,2013-02-06 16:41:00,
2013-02-06 09:51:00,27.0,11.0,-100.00,WSW,253,16.0,21.0,52,0.00,,,-99.99,,2013-02-06 16:51:00,
2013-02-06 10:01:00,27.0,11.0,-100.00,WSW,256,17.0,21.0,49,0.00,,,-99.99,,2013-02-06 17:01:00,
2013-02-06 10:11:00,27.0,11.0,-100.00,WSW,248,15.0,17.0,50,0.00,,,-99.99,,2013-02-06 17:11:00,
2013-02-06 10:21:00,27.0,11.0,-100.00,WSW,246,14.0,17.0,52,0.00,,,-99.99,,2013-02-06 17:21:00,
2013-02-06 10:32:00,26.0,12.0,-100.00,SW,234,16.0,18.0,55,0.00,,,-99.99,,2013-02-06 17:32:00,
2013-02-06 10:41:00,26.0,13.0,-100.00,WSW,237,16.0,18.0,55,0.00,,,-99.99,,2013-02-06 17:41:00,
2013-02-06 10:52:00,27.0,13.0,-100.00,WSW,244,19.0,23.0,55,0.00,,,-99.99,,2013-02-06 17:52:00,
2013-02-06 11:01:00,27.0,12.0,-100.00,WSW,243,20.0,23.0,53,0.00,,,-99.99,,2013-02-06 18:01:00,
2013-02-06 11:11:00,27.0,13.0,-100.00,WSW,246,18.0,24.0,55,0.00,,,-99.99,,2013-02-06 18:11:00,
2013-02-06 11:22:00,27.0,13.0,-100.00,WSW,246,17.0,22.0,56,0.00,,,-99.99,,2013-02-06 18:22:00,
2013-02-06 11:32:00,27.0,12.0,-100.00,WSW,248,22.0,26.0,52,0.00,,,-99.99,,2013-02-06 18:32:00,
2013-02-06 11:41:00,27.0,13.0,-100.00,WSW,244,19.0,24.0,54,0.00,,,-99.99,,2013-02-06 18:41:00,
2013-02-06 11:52:00,28.0,13.0,-100.00,WSW,248,17.0,23.0,54,0.00,,,-99.99,,2013-02-06 18:52:00,
2013-02-06 12:01:00,27.0,15.0,-100.00,WSW,239,17.0,21.0,58,0.00,,,-99.99,,2013-02-06 19:01:00,
2013-02-06 12:11:00,27.0,13.0,-100.00,WSW,237,17.0,20.0,56,0.00,,,-99.99,,2013-02-06 19:11:00,
2013-02-06 12:21:00,27.0,13.0,-100.00,WSW,243,19.0,24.0,54,0.00,,,-99.99,,2013-02-06 19:21:00,
2013-02-06 12:31:00,27.0,13.0,-100.00,WSW,250,21.0,26.0,54,0.00,,,-99.99,,2013-02-06 19:31:00,
2013-02-06 12:41:00,28.0,14.0,-100.00,WSW,257,17.0,22.0,54,0.00,,,-99.99,,2013-02-06 19:41:00,
2013-02-06 12:52:00,28.0,13.0,-100.00,WSW,258,16.0,19.0,53,0.00,,,-99.99,,2013-02-06 19:52:00,
2013-02-06 13:01:00,28.0,14.0,-100.00,WSW,246,21.0,24.0,55,0.00,,,-99.99,,2013-02-06 20:01:00,
2013-02-06 13:11:00,28.0,14.0,-100.00,WSW,244,20.0,22.0,55,0.00,,,-99.99,,2013-02-06 20:11:00,
2013-02-06 13:21:00,28.0,13.0,-100.00,WSW,244,21.0,25.0,54,0.00,,,-99.99,,2013-02-06 20:21:00,
2013-02-06 13:31:00,28.0,13.0,-100.00,WSW,247,22.0,25.0,54,0.00,,,-99.99,,2013-02-06 20:31:00,
2013-02-06 13:41:00,28.0,14.0,-100.00,WSW,247,20.0,24.0,56,0.00,,,-99.99,,2013-02-06 20:41:00,
2013-02-06 13:52:00,28.0,16.0,-100.00,WSW,254,18.0,22.0,60,0.00,,,-99.99,,2013-02-06 20:52:00,
2013-02-06 14:01:00,28.0,13.0,-100.00,WSW,254,19.0,27.0,53,0.00,,,-99.99,,2013-02-06 21:01:00,
2013-02-06 14:11:00,28.0,15.0,-100.00,WSW,247,16.0,22.0,58,0.00,,,-99.99,,2013-02-06 21:11:00,
2013-02-06 14:21:00,28.0,14.0,-100.00,WSW,246,19.0,24.0,56,0.00,,,-99.99,,2013-02-06 21:21:00,
2013-02-06 14:31:00,28.0,13.0,-100.00,WSW,251,21.0,27.0,53,0.00,,,-99.99,,2013-02-06 21:31:00,
2013-02-06 14:41:00,27.0,12.0,-100.00,WSW,244,22.0,26.0,52,0.00,,,-99.99,,2013-02-06 21:41:00,
2013-02-06 14:51:00,27.0,12.0,-100.00,WSW,254,24.0,29.0,53,0.00,,,-99.99,,2013-02-06 21:51:00,
2013-02-06 15:01:00,27.0,12.0,-100.00,WSW,247,22.0,27.0,53,0.00,,,-99.99,,2013-02-06 22:01:00,
2013-02-06 15:11:00,27.0,13.0,-100.00,WSW,251,20.0,26.0,55,0.00,,,-99.99,,2013-02-06 22:11:00,
2013-02-06 15:21:00,27.0,12.0,-100.00,WSW,248,21.0,24.0,54,0.00,,,-99.99,,2013-02-06 22:21:00,
2013-02-06 15:31:00,26.0,13.0,-100.00,WSW,240,20.0,23.0,56,0.00,,,-99.99,,2013-02-06 22:31:00,
2013-02-06 15:41:00,26.0,14.0,-100.00,WSW,237,16.0,21.0,59,0.00,,,-99.99,,2013-02-06 22:41:00,
2013-02-06 15:51:00,26.0,14.0,-100.00,WSW,241,14.0,17.0,59,0.00,,,-99.99,,2013-02-06 22:51:00,
2013-02-06 16:01:00,26.0,14.0,-100.00,WSW,244,17.0,19.0,59,0.00,,,-99.99,,2013-02-06 23:01:00,
2013-02-06 16:11:00,26.0,14.0,-100.00,WSW,248,12.0,17.0,60,0.00,,,-99.99,,2013-02-06 23:11:00,
2013-02-06 16:21:00,26.0,14.0,-100.00,WSW,244,14.0,17.0,60,0.00,,,-99.99,,2013-02-06 23:21:00,
2013-02-06 16:31:00,25.0,13.0,-100.00,WSW,241,19.0,22.0,60,0.00,,,-99.99,,2013-02-06 23:31:00,
2013-02-06 16:41:00,26.0,13.0,-100.00,WSW,250,18.0,23.0,59,0.00,,,-99.99,,2013-02-06 23:41:00,
2013-02-06 16:51:00,25.0,13.0,-100.00,WSW,256,17.0,21.0,58,0.00,,,-99.99,,2013-02-06 23:51:00,
2013-02-06 17:01:00,25.0,12.0,-100.00,WSW,253,17.0,22.0,58,0.00,,,-99.99,,2013-02-07 00:01:00,
2013-02-06 17:11:00,25.0,12.0,-100.00,WSW,253,17.0,21.0,58,0.00,,,-99.99,,2013-02-07 00:11:00,
2013-02-06 17:21:00,24.0,12.0,-100.00,WSW,253,12.0,17.0,59,0.00,,,-99.99,,2013-02-07 00:21:00,
2013-02-06 17:31:00,24.0,12.0,-100.00,WSW,253,12.0,16.0,60,0.00,,,-99.99,,2013-02-07 00:31:00,
2013-02-06 17:41:00,23.0,11.0,-100.00,WSW,244,13.0,16.0,61,0.00,,,-99.99,,2013-02-07 00:41:00,
2013-02-06 17:51:00,22.0,11.0,-100.00,WSW,248,12.0,13.0,62,0.00,,,-99.99,,2013-02-07 00:51:00,
2013-02-06 18:01:00,21.0,11.0,-100.00,WSW,250,9.0,10.0,64,0.00,,,-99.99,,2013-02-07 01:01:00,
2013-02-06 18:11:00,21.0,11.0,-100.00,WSW,246,9.0,11.0,65,0.00,,,-99.99,,2013-02-07 01:11:00,
2013-02-06 18:21:00,20.0,9.0,-100.00,WSW,254,8.0,11.0,62,0.00,,,-99.99,,2013-02-07 01:21:00,
2013-02-06 18:31:00,20.0,9.0,-100.00,WSW,253,7.0,9.0,60,0.00,,,-99.99,,2013-02-07 01:31:00,
2013-02-06 18:41:00,19.0,9.0,-100.00,SW,236,5.0,6.0,63,0.00,,,-99.99,,2013-02-07 01:41:00,
2013-02-06 18:52:00,20.0,9.0,-100.00,West,267,9.0,11.0,61,0.00,,,-99.99,,2013-02-07 01:52:00,
2013-02-06 19:01:00,19.0,8.0,-100.00,West,263,10.0,11.0,61,0.00,,,-99.99,,2013-02-07 02:01:00,
2013-02-06 19:11:00,20.0,7.0,-100.00,West,270,14.0,17.0,57,0.00,,,-99.99,,2013-02-07 02:11:00,
2013-02-06 19:21:00,22.0,5.0,-100.00,West,264,16.0,19.0,47,0.00,,,-99.99,,2013-02-07 02:21:00,
2013-02-06 19:31:00,21.0,5.0,-100.00,WSW,251,13.0,17.0,49,0.00,,,-99.99,,2013-02-07 02:31:00,
2013-02-06 19:41:00,21.0,5.0,-100.00,WSW,251,13.0,17.0,49,0.00,,,-99.99,,2013-02-07 02:41:00,
2013-02-06 19:51:00,21.0,5.0,-100.00,WSW,251,13.0,17.0,49,0.00,,,-99.99,,2013-02-07 02:51:00,
2013-02-06 20:01:00,17.0,6.0,-100.00,WSW,256,11.0,12.0,63,0.00,,,-99.99,,2013-02-07 03:01:00,
2013-02-06 20:11:00,17.0,7.0,-100.00,WSW,247,12.0,13.0,63,0.00,,,-99.99,,2013-02-07 03:11:00,
2013-02-06 20:21:00,17.0,7.0,-100.00,WSW,250,13.0,14.0,64,0.00,,,-99.99,,2013-02-07 03:21:00,
2013-02-06 20:31:00,17.0,6.0,-100.00,WSW,254,12.0,15.0,63,0.00,,,-99.99,,2013-02-07 03:31:00,
2013-02-06 20:41:00,15.0,6.0,-100.00,NW,320,7.0,9.0,67,0.00,,,-99.99,,2013-02-07 03:41:00,
2013-02-06 20:51:00,17.0,5.0,-100.00,WNW,284,10.0,11.0,60,0.00,,,-99.99,,2013-02-07 03:51:00,
2013-02-06 21:01:00,14.0,2.0,-100.00,NW,305,7.0,8.0,57,0.00,,,-99.99,,2013-02-07 04:01:00,
2013-02-06 21:11:00,17.0,1.0,-100.00,WNW,289,5.0,6.0,51,0.00,,,-99.99,,2013-02-07 04:11:00,
2013-02-06 21:21:00,17.0,3.0,-100.00,WSW,246,12.0,13.0,53,0.00,,,-99.99,,2013-02-07 04:21:00,
2013-02-06 21:31:00,13.0,1.0,-100.00,WSW,253,9.0,11.0,60,0.00,,,-99.99,,2013-02-07 04:31:00,
2013-02-06 21:41:00,14.0,0.0,-100.00,NW,304,6.0,8.0,52,0.00,,,-99.99,,2013-02-07 04:41:00,
2013-02-06 21:52:00,13.0,-2.0,-100.00,North,350,2.0,3.0,50,0.00,,,-99.99,,2013-02-07 04:52:00,
2013-02-06 22:01:00,11.0,-2.0,-100.00,NNW,344,2.0,3.0,54,0.00,,,-99.99,,2013-02-07 05:01:00,
2013-02-06 22:11:00,13.0,-2.0,-100.00,West,270,2.0,2.0,51,0.00,,,-99.99,,2013-02-07 05:11:00,
2013-02-06 22:21:00,12.0,-2.0,-100.00,NNW,328,2.0,3.0,51,0.00,,,-99.99,,2013-02-07 05:21:00,
2013-02-06 22:32:00,12.0,-1.0,-100.00,WSW,251,3.0,4.0,54,0.00,,,-99.99,,2013-02-07 05:32:00,
2013-02-06 22:42:00,11.0,-2.0,-100.00,West,274,2.0,6.0,57,0.00,,,-99.99,,2013-02-07 05:42:00,
2013-02-06 22:52:00,9.0,-2.0,-100.00,North,350,1.0,2.0,62,0.00,,,-99.99,,2013-02-07 05:52:00,
2013-02-06 23:01:00,11.0,0.0,-100.00,NE,40,1.0,1.0,61,0.00,,,-99.99,,2013-02-07 06:01:00,
2013-02-06 23:11:00,12.0,2.0,-100.00,WSW,247,2.0,2.0,61,0.00,,,-99.99,,2013-02-07 06:11:00,
2013-02-06 23:22:00,10.0,-1.0,-100.00,WSW,246,2.0,3.0,62,0.00,,,-99.99,,2013-02-07 06:22:00,
2013-02-06 23:31:00,14.0,3.0,-100.00,WSW,251,4.0,6.0,61,0.00,,,-99.99,,2013-02-07 06:31:00,
2013-02-06 23:42:00,11.0,2.0,-100.00,West,271,1.0,2.0,66,0.00,,,-99.99,,2013-02-07 06:42:00,
2013-02-06 23:52:00,9.0,0.0,-100.00,NW,311,3.0,4.0,66,0.00,,,-99.99,,2013-02-07 06:52:00,